Time;durP1;ratioP1;P1;durP2;ratioP2;P2;SDS_P1;SDS_P2;PMS_P1;PMS_P2;Temp;Humidity;BMP_temperature;BMP_pressure;BME280_temperature;BME280_humidity;BME280_pressure;Samples;Min_cycle;Max_cycle;Signal;HPM_P1;HPM_P2
2021/07/25 00:00:50;;;;;;;17.38;11.77;;;;;;;23.60;91.33;100109.03;5027576;28;20034;-76
2021/07/25 00:03:15;;;;;;;17.95;11.85;;;;;;;23.43;92.17;100119.56;5028217;28;20513;-74
2021/07/25 00:05:42;;;;;;;19.35;12.30;;;;;;;23.53;92.72;100120.34;5007054;28;20029;-75
2021/07/25 00:08:14;;;;;;;19.48;12.45;;;;;;;23.54;94.05;100116.38;5026446;28;20163;-74
2021/07/25 00:10:44;;;;;;;21.75;11.65;;;;;;;23.53;92.54;100112.09;5027147;28;20033;-74
2021/07/25 00:13:11;;;;;;;21.60;13.07;;;;;;;23.67;92.41;100120.53;5027408;28;20037;-74
2021/07/25 00:15:36;;;;;;;20.17;12.50;;;;;;;23.79;91.80;100114.09;5033743;23;20041;-74
2021/07/25 00:18:02;;;;;;;18.98;12.02;;;;;;;23.74;91.69;100119.44;5024075;28;20041;-74
2021/07/25 00:20:28;;;;;;;22.27;12.23;;;;;;;23.72;91.29;100122.66;5030936;28;20477;-74
2021/07/25 00:22:53;;;;;;;16.60;11.45;;;;;;;23.82;89.77;100106.94;5027718;28;20509;-72
2021/07/25 00:25:19;;;;;;;21.75;11.68;;;;;;;23.56;92.14;100114.69;5017984;28;20545;-72
2021/07/25 00:27:51;;;;;;;19.00;11.90;;;;;;;23.60;91.93;100120.81;5030595;28;20498;-72
2021/07/25 00:30:18;;;;;;;18.67;11.77;;;;;;;23.59;91.84;100113.03;5025248;28;20065;-72
2021/07/25 00:32:45;;;;;;;21.98;12.25;;;;;;;23.52;92.32;100114.06;5025004;28;20041;-72
2021/07/25 00:35:10;;;;;;;20.02;11.55;;;;;;;23.67;91.18;100106.00;5026888;28;20057;-72
2021/07/25 00:37:36;;;;;;;18.92;11.73;;;;;;;23.54;92.11;100116.38;5026803;28;20517;-74
2021/07/25 00:40:02;;;;;;;16.73;11.50;;;;;;;23.43;92.31;100110.53;5024923;28;20065;-74
2021/07/25 00:42:38;;;;;;;18.10;11.82;;;;;;;23.46;92.58;100112.41;5020838;28;20366;-74
2021/07/25 00:45:06;;;;;;;20.50;11.23;;;;;;;23.44;92.84;100114.84;5014392;28;20049;-74
2021/07/25 00:47:37;;;;;;;18.45;11.90;;;;;;;23.24;93.94;100109.72;5000860;28;20064;-74
2021/07/25 00:50:03;;;;;;;17.05;11.13;;;;;;;23.25;94.41;100101.00;5025284;28;20120;-74
2021/07/25 00:52:30;;;;;;;20.05;10.98;;;;;;;23.42;93.37;100114.53;5029085;28;20031;-72
2021/07/25 00:54:56;;;;;;;17.08;11.65;;;;;;;23.35;93.69;100112.03;5026945;28;20147;-72
2021/07/25 00:57:21;;;;;;;22.75;11.43;;;;;;;23.53;91.23;100101.88;5019131;28;20061;-72
2021/07/25 00:59:46;;;;;;;18.02;11.40;;;;;;;23.27;91.62;100106.81;5023647;28;20064;-72
2021/07/25 01:02:12;;;;;;;18.08;12.10;;;;;;;23.17;93.44;100102.50;5021854;28;20122;-72
2021/07/25 01:05:06;;;;;;;17.83;10.50;;;;;;;23.16;92.90;100109.25;5018179;28;20057;-72
2021/07/25 01:07:47;;;;;;;17.80;11.43;;;;;;;23.14;92.36;100108.16;5020037;28;20018;-72
2021/07/25 01:10:27;;;;;;;17.65;10.73;;;;;;;23.19;92.58;100102.81;5030185;28;20544;-72
2021/07/25 01:12:55;;;;;;;17.98;11.45;;;;;;;23.19;92.71;100108.31;5030132;28;20488;-72
2021/07/25 01:15:23;;;;;;;20.63;11.90;;;;;;;23.21;92.92;100108.63;5025687;28;20043;-72
2021/07/25 01:17:49;;;;;;;18.90;11.35;;;;;;;23.32;92.24;100104.72;5034601;28;20498;-72
2021/07/25 01:20:15;;;;;;;22.58;11.02;;;;;;;23.30;92.07;100097.69;5026702;28;20033;-72
2021/07/25 01:22:48;;;;;;;18.15;11.50;;;;;;;23.25;91.54;100092.00;5029589;28;20213;-72
2021/07/25 01:25:17;;;;;;;16.20;10.48;;;;;;;23.18;92.79;100090.31;5029254;28;20423;-72
2021/07/25 01:28:12;;;;;;;15.73;10.80;;;;;;;23.20;91.73;100096.13;5025686;28;20060;-72
2021/07/25 01:30:40;;;;;;;16.35;10.80;;;;;;;23.17;91.49;100099.75;5021475;28;20421;-73
2021/07/25 01:33:20;;;;;;;17.75;10.88;;;;;;;23.07;92.25;100086.47;5024659;28;20572;-73
2021/07/25 01:35:47;;;;;;;17.90;11.05;;;;;;;23.00;93.79;100093.00;5020201;28;20079;-73
2021/07/25 01:38:14;;;;;;;15.10;10.90;;;;;;;23.23;91.54;100092.44;5033553;28;20136;-73
2021/07/25 01:40:39;;;;;;;17.23;11.55;;;;;;;23.03;93.40;100088.59;5023581;28;20069;-73
2021/07/25 01:43:07;;;;;;;17.38;10.95;;;;;;;22.99;93.43;100088.72;5031150;28;20441;-74
2021/07/25 01:45:33;;;;;;;19.63;11.73;;;;;;;22.96;93.28;100094.34;5030553;28;20041;-73
2021/07/25 01:47:58;;;;;;;21.55;11.18;;;;;;;22.94;93.69;100094.03;5030803;28;20061;-73
2021/07/25 01:50:24;;;;;;;16.85;11.45;;;;;;;22.90;93.78;100090.69;5032250;28;20556;-73
2021/07/25 01:52:49;;;;;;;20.98;11.02;;;;;;;22.87;94.04;100097.06;5033094;28;20056;-73
2021/07/25 01:55:15;;;;;;;18.85;11.07;;;;;;;22.83;94.05;100090.94;5010588;28;20039;-73
2021/07/25 01:57:40;;;;;;;16.85;11.13;;;;;;;22.74;94.90;100088.94;5031831;28;20470;-73
2021/07/25 02:00:07;;;;;;;17.02;11.32;;;;;;;22.61;94.70;100096.50;5026932;28;20037;-73
2021/07/25 02:02:33;;;;;;;20.05;11.48;;;;;;;22.59;95.26;100087.94;5032440;28;20044;-73
2021/07/25 02:04:58;;;;;;;18.63;10.82;;;;;;;22.61;95.75;100088.25;5041137;28;20128;-73
2021/07/25 02:07:24;;;;;;;19.35;11.88;;;;;;;22.59;95.95;100087.19;5024978;28;20025;-73
2021/07/25 02:09:50;;;;;;;20.50;11.25;;;;;;;22.51;95.54;100103.13;5019896;28;20108;-73
2021/07/25 02:12:15;;;;;;;18.27;11.35;;;;;;;22.36;96.70;100108.38;5025661;28;20042;-73
2021/07/25 02:14:41;;;;;;;15.50;10.80;;;;;;;22.30;97.15;100112.13;5022675;28;20032;-73
2021/07/25 02:17:08;;;;;;;17.42;11.68;;;;;;;22.30;97.65;100120.38;5028031;28;20048;-73
2021/07/25 02:19:34;;;;;;;20.50;12.02;;;;;;;22.30;97.14;100123.09;5031978;28;20425;-73
2021/07/25 02:22:00;;;;;;;16.92;11.38;;;;;;;22.28;97.62;100117.31;5025988;28;21126;-73
2021/07/25 02:24:25;;;;;;;17.88;10.77;;;;;;;22.26;98.31;100127.97;5024278;28;20029;-73
2021/07/25 02:26:54;;;;;;;16.60;11.30;;;;;;;22.36;97.69;100122.09;5031348;28;20112;-73
2021/07/25 02:29:20;;;;;;;20.38;12.00;;;;;;;22.32;98.67;100120.69;5030278;28;20040;-73
2021/07/25 02:31:46;;;;;;;19.58;12.02;;;;;;;22.35;98.04;100128.81;5014196;28;20045;-73
2021/07/25 02:34:12;;;;;;;18.77;11.65;;;;;;;22.36;97.70;100113.88;5028369;28;21006;-73
2021/07/25 02:36:38;;;;;;;19.85;11.63;;;;;;;22.45;97.80;100113.91;5023472;28;20036;-73
2021/07/25 02:39:04;;;;;;;19.92;12.20;;;;;;;22.43;98.55;100127.31;5024765;28;20047;-73
2021/07/25 02:41:29;;;;;;;16.48;11.43;;;;;;;22.38;99.15;100116.94;5028678;28;20397;-73
2021/07/25 02:43:55;;;;;;;20.75;12.00;;;;;;;22.44;99.53;100125.34;5026783;28;20044;-73
2021/07/25 02:46:20;;;;;;;18.95;12.65;;;;;;;22.49;98.70;100116.53;5027855;28;20040;-73
2021/07/25 02:48:46;;;;;;;20.85;12.18;;;;;;;22.50;98.67;100122.78;5028294;28;20030;-73
2021/07/25 02:51:12;;;;;;;19.05;12.27;;;;;;;22.28;99.76;100133.75;5025923;28;20060;-73
2021/07/25 02:53:37;;;;;;;21.98;12.80;;;;;;;22.34;100.00;100145.69;5025001;28;20036;-73
2021/07/25 02:56:03;;;;;;;20.35;12.45;;;;;;;22.36;99.32;100148.78;5026515;28;20501;-73
2021/07/25 02:58:28;;;;;;;19.95;12.40;;;;;;;22.34;99.80;100146.47;5024263;28;20069;-73
2021/07/25 03:00:54;;;;;;;19.65;13.25;;;;;;;22.24;100.00;100147.63;5027996;28;20029;-73
2021/07/25 03:03:19;;;;;;;20.15;13.63;;;;;;;22.31;99.27;100143.88;5031218;28;20037;-73
2021/07/25 03:05:45;;;;;;;23.00;13.82;;;;;;;22.26;99.37;100152.69;5029017;28;20029;-73
2021/07/25 03:08:10;;;;;;;19.95;13.43;;;;;;;22.24;99.80;100150.38;5028074;28;20072;-73
2021/07/25 03:10:38;;;;;;;23.10;13.75;;;;;;;22.20;99.86;100165.44;5030398;28;20034;-73
2021/07/25 03:13:04;;;;;;;19.85;13.43;;;;;;;22.22;99.29;100174.75;5012665;28;20056;-73
2021/07/25 03:15:29;;;;;;;25.00;13.68;;;;;;;22.23;100.00;100168.06;5024030;28;20033;-73
2021/07/25 03:17:55;;;;;;;21.02;13.40;;;;;;;22.11;100.00;100173.56;5030862;28;20033;-73
2021/07/25 03:20:20;;;;;;;22.35;13.75;;;;;;;22.22;100.00;100163.75;5030567;28;20041;-73
2021/07/25 03:22:46;;;;;;;23.83;13.68;;;;;;;22.05;100.00;100167.13;5023281;28;20120;-73
2021/07/25 03:25:12;;;;;;;25.33;14.60;;;;;;;22.05;100.00;100169.88;5026128;28;20045;-73
2021/07/25 03:27:38;;;;;;;21.55;14.68;;;;;;;22.08;100.00;100175.25;5018181;28;20038;-73
2021/07/25 03:30:05;;;;;;;24.00;14.60;;;;;;;22.05;100.00;100167.13;5026094;28;20026;-73
2021/07/25 03:32:30;;;;;;;20.95;14.57;;;;;;;21.98;100.00;100170.91;5027892;28;20474;-73
2021/07/25 03:34:56;;;;;;;25.17;14.90;;;;;;;22.08;100.00;100169.78;5023716;28;20140;-74
2021/07/25 03:37:22;;;;;;;22.13;14.95;;;;;;;21.89;100.00;100172.78;5018569;28;20121;-74
2021/07/25 03:39:50;;;;;;;24.98;15.40;;;;;;;21.97;100.00;100179.56;5008357;28;20509;-74
2021/07/25 03:42:16;;;;;;;24.58;14.57;;;;;;;22.09;100.00;100167.78;5028290;28;20059;-74
2021/07/25 03:44:42;;;;;;;21.65;14.80;;;;;;;22.16;100.00;100173.78;5030515;28;20041;-74
2021/07/25 03:47:08;;;;;;;22.90;16.10;;;;;;;22.19;100.00;100174.88;5029568;28;20033;-74
2021/07/25 03:49:34;;;;;;;22.17;15.57;;;;;;;22.22;100.00;100187.72;5023569;28;20033;-74
2021/07/25 03:51:59;;;;;;;25.13;15.85;;;;;;;22.14;100.00;100176.19;5031140;28;20083;-74
2021/07/25 03:54:27;;;;;;;22.80;15.73;;;;;;;22.17;100.00;100182.78;5022308;28;20029;-74
2021/07/25 03:56:53;;;;;;;24.73;15.95;;;;;;;22.18;100.00;100178.84;5008185;28;20038;-74
2021/07/25 03:59:18;;;;;;;25.77;16.77;;;;;;;22.10;100.00;100177.53;5026465;28;20117;-75
2021/07/25 04:01:46;;;;;;;25.67;15.80;;;;;;;22.07;100.00;100181.16;5019198;28;20453;-75
2021/07/25 04:04:12;;;;;;;25.27;16.30;;;;;;;22.13;100.00;100185.66;5026790;28;20063;-75
2021/07/25 04:06:37;;;;;;;28.95;17.63;;;;;;;22.10;100.00;100194.78;5025400;28;20468;-75
2021/07/25 04:09:03;;;;;;;26.65;17.02;;;;;;;21.99;100.00;100194.34;5029210;28;20037;-75
2021/07/25 04:11:28;;;;;;;25.48;16.80;;;;;;;21.99;100.00;100194.34;5023394;28;20513;-75
2021/07/25 04:13:57;;;;;;;29.02;17.48;;;;;;;21.98;100.00;100192.06;5024220;28;20029;-75
2021/07/25 04:16:22;;;;;;;25.50;16.92;;;;;;;21.96;100.00;100203.47;5025579;28;20030;-75
2021/07/25 04:18:48;;;;;;;26.33;16.67;;;;;;;21.90;100.00;100205.25;5029384;28;20053;-75
2021/07/25 04:21:13;;;;;;;32.03;17.17;;;;;;;21.95;100.00;100207.41;5017776;28;20033;-75
2021/07/25 04:23:40;;;;;;;24.42;16.73;;;;;;;21.98;100.00;100205.78;5027826;28;20033;-75
2021/07/25 04:26:06;;;;;;;23.10;16.17;;;;;;;22.07;100.00;100205.84;5021777;28;20030;-75
2021/07/25 04:28:31;;;;;;;32.42;18.55;;;;;;;22.06;100.00;100204.34;5019802;28;20512;-75
2021/07/25 04:30:57;;;;;;;28.02;17.23;;;;;;;22.00;100.00;100214.34;5020265;28;20041;-75
2021/07/25 04:33:23;;;;;;;30.02;16.98;;;;;;;21.99;100.00;100207.31;5025845;28;20425;-75
2021/07/25 04:35:49;;;;;;;25.08;16.83;;;;;;;21.98;100.00;100208.53;5027874;28;20041;-75
2021/07/25 04:38:15;;;;;;;27.77;18.00;;;;;;;22.00;100.00;100223.34;5019324;28;20029;-75
2021/07/25 04:40:44;;;;;;;27.23;17.92;;;;;;;22.00;100.00;100219.81;5029328;28;20025;-75
2021/07/25 04:43:14;;;;;;;23.40;17.00;;;;;;;21.90;100.00;100223.69;5027767;28;20033;-75
2021/07/25 04:45:46;;;;;;;29.88;18.05;;;;;;;21.76;100.00;100222.13;5004157;28;20036;-74
2021/07/25 04:48:21;;;;;;;27.92;18.50;;;;;;;21.82;100.00;100217.66;5011803;28;20033;-75
2021/07/25 04:50:53;;;;;;;28.10;17.98;;;;;;;21.86;100.00;100226.53;5019900;28;20025;-75
2021/07/25 04:53:25;;;;;;;30.02;17.45;;;;;;;21.83;100.00;100243.13;5023276;28;20044;-75
2021/07/25 04:55:57;;;;;;;29.70;18.02;;;;;;;21.93;100.00;100233.78;5024402;28;20033;-75
2021/07/25 04:58:29;;;;;;;35.35;19.52;;;;;;;21.83;100.00;100241.16;5016853;28;20065;-74
2021/07/25 05:00:56;;;;;;;30.65;18.77;;;;;;;21.87;100.00;100241.81;5020099;28;20391;-74
2021/07/25 05:03:22;;;;;;;33.63;19.05;;;;;;;21.96;100.00;100233.66;5026627;28;20821;-74
2021/07/25 05:05:50;;;;;;;30.67;19.98;;;;;;;21.88;100.00;100229.59;5016219;28;20038;-74
2021/07/25 05:08:16;;;;;;;32.08;21.40;;;;;;;21.94;100.00;100236.06;5027313;28;20032;-74
2021/07/25 05:10:42;;;;;;;29.42;20.05;;;;;;;21.92;100.00;100241.22;5020093;28;20034;-74
2021/07/25 05:13:10;;;;;;;29.33;19.92;;;;;;;21.97;100.00;100239.91;5028714;28;20167;-74
2021/07/25 05:15:40;;;;;;;36.35;21.20;;;;;;;22.01;100.00;100240.56;5027311;28;20051;-75
2021/07/25 05:18:27;;;;;;;34.88;21.13;;;;;;;22.04;100.00;100256.13;5021320;28;20052;-75
2021/07/25 05:21:08;;;;;;;40.65;22.55;;;;;;;22.22;100.00;100250.81;5033585;28;20124;-75
2021/07/25 05:23:45;;;;;;;39.30;22.97;;;;;;;22.21;100.00;100261.03;5033507;28;20120;-75
2021/07/25 05:26:12;;;;;;;35.72;23.15;;;;;;;22.71;100.00;100251.06;5015588;28;20293;-75
2021/07/25 05:28:38;;;;;;;33.33;21.73;;;;;;;23.24;98.78;100252.63;5032479;28;20035;-75
2021/07/25 05:31:07;;;;;;;36.35;21.02;;;;;;;24.00;94.89;100261.03;5017391;28;20517;-75
2021/07/25 05:33:32;;;;;;;31.67;20.50;;;;;;;24.58;91.97;100253.47;5019363;28;20071;-75
2021/07/25 05:35:58;;;;;;;31.60;20.90;;;;;;;25.08;88.05;100265.81;5020600;28;20061;-74
2021/07/25 05:38:24;;;;;;;34.92;20.95;;;;;;;25.33;86.10;100261.91;5020833;28;20048;-75
2021/07/25 05:40:49;;;;;;;32.10;20.52;;;;;;;25.68;84.70;100263.03;5032517;28;20520;-74
2021/07/25 05:43:15;;;;;;;35.25;20.55;;;;;;;25.96;83.05;100269.91;5025507;28;20029;-75
2021/07/25 05:45:41;;;;;;;32.53;21.30;;;;;;;26.10;81.59;100266.47;5029259;28;20722;-75
2021/07/25 05:48:07;;;;;;;31.48;20.42;;;;;;;26.37;80.96;100285.63;5031930;28;20033;-75
2021/07/25 05:50:33;;;;;;;33.15;21.38;;;;;;;26.50;79.87;100275.09;5031583;28;20033;-75
2021/07/25 05:52:59;;;;;;;29.55;20.15;;;;;;;26.75;79.25;100277.34;5029397;28;20037;-75
2021/07/25 05:55:30;;;;;;;31.67;20.58;;;;;;;26.62;77.39;100279.59;5031377;28;20029;-75
2021/07/25 05:57:56;;;;;;;;;;;;;;;26.48;78.71;100287.88;5026446;28;20490;-75
2021/07/25 06:00:22;;;;;;;31.83;20.13;;;;;;;26.82;78.71;100290.03;5028138;28;20056;-75
2021/07/25 06:02:58;;;;;;;33.80;22.23;;;;;;;27.05;76.93;100278.16;5026004;28;20127;-75
2021/07/25 06:05:29;;;;;;;38.00;21.23;;;;;;;26.91;76.64;100276.13;5028533;28;20034;-75
2021/07/25 06:07:57;;;;;;;31.42;20.92;;;;;;;26.91;77.59;100280.88;5025470;28;20045;-75
2021/07/25 06:10:25;;;;;;;31.98;21.60;;;;;;;26.98;76.21;100283.28;5021764;28;20042;-75
2021/07/25 06:12:51;;;;;;;34.80;21.33;;;;;;;26.83;77.51;100286.03;5030728;28;20442;-75
2021/07/25 06:15:17;;;;;;;34.55;20.85;;;;;;;27.08;76.19;100291.00;5036655;22;20038;-75
2021/07/25 06:17:43;;;;;;;34.88;22.58;;;;;;;26.66;75.39;100294.00;5007387;28;20026;-75
2021/07/25 06:20:09;;;;;;;31.52;21.70;;;;;;;26.59;77.07;100288.84;5012025;28;20667;-75
2021/07/25 06:22:37;;;;;;;32.50;21.75;;;;;;;26.79;78.66;100302.81;5007101;28;20055;-75
2021/07/25 06:25:03;;;;;;;36.90;22.17;;;;;;;26.99;76.85;100291.09;5002498;28;20042;-75
2021/07/25 06:27:29;;;;;;;35.10;23.58;;;;;;;26.78;75.52;100304.06;5006388;28;20034;-75
2021/07/25 06:29:54;;;;;;;36.58;23.35;;;;;;;26.62;76.94;100300.94;5013202;28;20505;-75
2021/07/25 06:32:19;;;;;;;34.30;22.60;;;;;;;26.24;77.20;100298.94;5006916;28;20050;-75
2021/07/25 06:34:45;;;;;;;33.70;22.65;;;;;;;26.05;78.61;100302.25;5006156;28;20053;-75
2021/07/25 06:37:10;;;;;;;38.47;23.75;;;;;;;25.77;82.40;100313.41;5008376;28;20510;-75
2021/07/25 06:39:36;;;;;;;37.88;24.13;;;;;;;25.33;81.25;100314.31;5005129;28;20040;-76
2021/07/25 06:42:01;;;;;;;41.00;24.27;;;;;;;24.90;83.19;100307.97;5006830;28;20493;-76
2021/07/25 06:44:27;;;;;;;34.83;22.90;;;;;;;24.60;86.03;100308.84;5006291;28;20030;-77
2021/07/25 06:46:52;;;;;;;36.00;22.98;;;;;;;24.53;86.14;100303.66;5008516;28;20482;-76
2021/07/25 06:49:17;;;;;;;45.55;24.63;;;;;;;24.57;87.13;100298.75;5012628;28;20070;-76
2021/07/25 06:51:43;;;;;;;40.30;24.02;;;;;;;24.72;85.76;100299.69;5008698;28;20044;-77
2021/07/25 06:54:08;;;;;;;37.40;23.80;;;;;;;24.75;85.34;100298.00;5007490;28;20417;-77
2021/07/25 06:56:34;;;;;;;38.13;24.20;;;;;;;24.58;85.59;100297.53;5010172;28;20387;-79
2021/07/25 06:58:59;;;;;;;33.55;22.73;;;;;;;24.43;86.31;100307.59;5003561;28;20046;-76
2021/07/25 07:01:27;;;;;;;37.55;23.33;;;;;;;24.48;86.44;100309.78;5012379;28;20033;-77
2021/07/25 07:03:53;;;;;;;38.90;23.92;;;;;;;24.47;86.55;100313.72;5010208;28;20034;-78
2021/07/25 07:06:18;;;;;;;33.15;21.45;;;;;;;24.34;88.40;100304.84;5006697;28;20104;-78
2021/07/25 07:08:44;;;;;;;35.58;22.92;;;;;;;24.50;88.60;100304.56;5012706;28;20034;-77
2021/07/25 07:11:09;;;;;;;33.50;21.83;;;;;;;24.68;87.79;100307.31;5012800;28;20026;-77
2021/07/25 07:13:35;;;;;;;33.17;22.08;;;;;;;24.74;86.86;100313.78;5008042;28;20065;-77
2021/07/25 07:16:00;;;;;;;35.55;23.85;;;;;;;24.81;86.30;100310.72;5002571;28;20414;-76
2021/07/25 07:18:26;;;;;;;32.35;21.80;;;;;;;24.79;86.75;100307.66;5009642;28;20030;-77
2021/07/25 07:20:51;;;;;;;38.92;23.52;;;;;;;24.69;86.92;100311.63;5003201;28;20072;-77
2021/07/25 07:23:20;;;;;;;33.38;22.45;;;;;;;24.47;89.28;100304.69;5000406;28;20034;-77
2021/07/25 07:25:48;;;;;;;34.60;22.25;;;;;;;24.63;88.24;100310.69;5001037;28;20030;-78
2021/07/25 07:28:15;;;;;;;35.85;22.13;;;;;;;24.58;86.47;100314.06;4996294;28;20470;-79
2021/07/25 07:30:42;;;;;;;37.58;22.50;;;;;;;24.76;86.37;100314.09;5003239;28;20031;-78
2021/07/25 07:33:12;;;;;;;35.22;22.55;;;;;;;24.80;85.95;100309.19;5002340;28;20041;-77
2021/07/25 07:35:39;;;;;;;30.98;20.02;;;;;;;24.85;86.01;100303.03;5001189;28;20037;-77
2021/07/25 07:38:08;;;;;;;34.65;22.05;;;;;;;24.89;85.29;100311.94;5002510;28;20410;-77
2021/07/25 07:40:37;;;;;;;35.88;22.23;;;;;;;24.93;86.64;100307.03;4997496;28;20053;-77
2021/07/25 07:43:05;;;;;;;35.38;23.17;;;;;;;24.74;85.10;100319.28;4995767;28;20033;-77
2021/07/25 07:45:32;;;;;;;29.75;20.02;;;;;;;24.61;84.83;100310.38;5005478;28;20103;-77
2021/07/25 07:47:57;;;;;;;33.08;19.98;;;;;;;24.73;86.40;100312.25;5008445;28;20073;-77
2021/07/25 07:50:23;;;;;;;29.58;18.85;;;;;;;25.05;86.36;100313.59;5002293;28;20026;-77
2021/07/25 07:52:49;;;;;;;32.72;20.00;;;;;;;25.38;87.00;100330.22;5002808;28;20042;-74
2021/07/25 07:55:15;;;;;;;25.25;17.63;;;;;;;25.74;85.80;100324.63;5003320;28;20125;-78
2021/07/25 07:57:41;;;;;;;28.75;18.75;;;;;;;25.96;83.40;100314.09;5007644;28;20030;-78
2021/07/25 08:00:07;;;;;;;31.15;20.00;;;;;;;26.05;80.71;100321.56;5008575;28;20045;-77
2021/07/25 08:02:39;;;;;;;30.55;18.80;;;;;;;26.14;81.97;100329.81;4998780;28;20494;-77
2021/07/25 08:05:05;;;;;;;26.60;18.42;;;;;;;26.41;81.54;100335.94;5005084;28;20118;-77
2021/07/25 08:07:30;;;;;;;30.63;19.10;;;;;;;26.43;80.59;100330.72;4998946;28;20501;-77
2021/07/25 08:09:56;;;;;;;25.17;17.30;;;;;;;26.40;77.50;100328.88;5007848;28;20037;-77
2021/07/25 08:12:21;;;;;;;28.20;18.08;;;;;;;26.15;79.01;100334.88;5009819;28;20029;-76
2021/07/25 08:14:47;;;;;;;21.73;14.77;;;;;;;26.42;81.55;100326.41;4999826;28;20033;-78
2021/07/25 08:17:13;;;;;;;30.27;18.48;;;;;;;26.54;77.25;100333.69;4997270;28;20038;-79
2021/07/25 08:19:38;;;;;;;25.73;16.95;;;;;;;26.71;77.21;100326.53;5005355;28;20026;-78
2021/07/25 08:22:07;;;;;;;26.92;17.85;;;;;;;26.76;78.29;100319.59;5018271;28;20037;-76
2021/07/25 08:24:33;;;;;;;27.25;16.92;;;;;;;27.11;76.31;100328.78;5014768;28;20123;-77
2021/07/25 08:26:58;;;;;;;25.45;16.38;;;;;;;27.16;77.84;100335.66;4996551;28;20501;-74
2021/07/25 08:29:25;;;;;;;22.77;15.02;;;;;;;27.10;76.13;100321.72;5007739;28;20177;-74
2021/07/25 08:31:50;;;;;;;26.30;16.15;;;;;;;27.10;75.88;100324.47;5003870;28;20034;-74
2021/07/25 08:34:16;;;;;;;20.10;15.18;;;;;;;27.07;77.50;100328.22;4989778;28;20509;-74
2021/07/25 08:36:43;;;;;;;22.55;14.77;;;;;;;27.24;76.89;100329.28;5004875;28;20021;-74
2021/07/25 08:39:08;;;;;;;24.77;14.90;;;;;;;27.20;77.77;100325.16;5004325;28;20072;-75
2021/07/25 08:41:56;;;;;;;24.80;14.77;;;;;;;27.02;78.92;100330.88;5007724;28;20042;-74
2021/07/25 08:44:34;;;;;;;21.23;14.02;;;;;;;27.16;76.89;100321.84;4999607;28;20053;-74
2021/07/25 08:47:00;;;;;;;23.25;16.15;;;;;;;27.37;75.31;100329.03;4994283;28;20034;-74
2021/07/25 08:49:39;;;;;;;24.52;15.23;;;;;;;27.16;74.57;100335.66;5002863;28;20030;-74
2021/07/25 08:52:06;;;;;;;21.95;15.98;;;;;;;27.20;74.39;100325.94;4999569;28;20091;-74
2021/07/25 08:54:34;;;;;;;22.30;15.32;;;;;;;27.30;73.90;100323.81;4999838;28;20378;-74
2021/07/25 08:57:00;;;;;;;25.90;16.38;;;;;;;27.17;74.27;100329.66;5005373;28;20034;-76
2021/07/25 08:59:29;;;;;;;29.45;16.38;;;;;;;27.04;73.56;100322.88;5000089;28;20561;-76
2021/07/25 09:01:59;;;;;;;22.65;14.80;;;;;;;27.42;73.47;100322.81;5025229;28;20033;-76
2021/07/25 09:04:25;;;;;;;19.95;14.13;;;;;;;27.65;70.98;100316.38;5008727;28;20046;-77
2021/07/25 09:06:51;;;;;;;22.80;15.18;;;;;;;27.30;70.68;100321.81;5002005;28;20042;-76
2021/07/25 09:09:19;;;;;;;21.02;13.52;;;;;;;27.55;71.73;100324.03;5008138;28;20057;-76
2021/07/25 09:11:49;;;;;;;22.00;13.43;;;;;;;27.82;74.27;100322.94;5008536;28;20034;-76
2021/07/25 09:14:15;;;;;;;20.48;13.13;;;;;;;28.08;68.65;100332.16;4996005;28;20084;-76
2021/07/25 09:16:40;;;;;;;22.33;14.02;;;;;;;28.10;69.25;100329.69;5004602;28;20042;-74
2021/07/25 09:19:07;;;;;;;19.42;12.77;;;;;;;28.36;70.41;100319.44;5010762;28;20040;-75
2021/07/25 09:21:47;;;;;;;17.17;11.90;;;;;;;28.71;70.02;100321.38;5000294;28;20042;-76
2021/07/25 09:24:18;;;;;;;20.65;13.63;;;;;;;29.00;64.92;100326.72;5009314;28;20061;-76
2021/07/25 09:27:00;;;;;;;15.13;11.52;;;;;;;29.06;64.36;100313.66;5008082;28;20475;-76
2021/07/25 09:29:28;;;;;;;18.92;12.02;;;;;;;28.97;64.36;100313.84;4998944;28;20116;-76
2021/07/25 09:32:16;;;;;;;18.33;12.38;;;;;;;28.93;66.21;100313.28;4999918;28;20037;-77
2021/07/25 09:34:44;;;;;;;19.40;13.75;;;;;;;28.92;65.60;100314.56;4980269;28;20049;-76
2021/07/25 09:37:19;;;;;;;17.30;12.18;;;;;;;29.18;67.70;100318.88;4997735;28;20038;-76
2021/07/25 09:39:55;;;;;;;16.90;11.63;;;;;;;29.13;65.91;100319.56;4995335;28;20497;-76
2021/07/25 09:42:31;;;;;;;12.18;9.45;;;;;;;29.25;62.83;100321.19;5002677;28;20056;-77
2021/07/25 09:44:59;;;;;;;13.23;9.38;;;;;;;29.48;63.23;100313.81;5014112;28;20061;-76
2021/07/25 09:47:33;;;;;;;17.55;12.48;;;;;;;29.75;63.05;100318.09;4992957;28;20085;-76
2021/07/25 09:49:59;;;;;;;15.68;10.27;;;;;;;29.86;61.81;100321.72;4988613;28;20058;-74
2021/07/25 09:52:26;;;;;;;17.40;11.27;;;;;;;30.12;62.81;100314.00;4988559;28;20026;-74
2021/07/25 09:54:56;;;;;;;16.73;10.65;;;;;;;29.95;61.82;100320.75;5004997;28;20025;-73
2021/07/25 09:57:24;;;;;;;17.05;11.02;;;;;;;30.18;62.29;100319.59;5000578;28;20562;-74
2021/07/25 09:59:50;;;;;;;14.73;10.10;;;;;;;30.38;63.34;100327.06;5002894;28;20048;-73
2021/07/25 10:02:38;;;;;;;14.38;9.95;;;;;;;29.91;59.94;100323.75;4995195;28;20038;-74
2021/07/25 10:05:22;;;;;;;12.27;9.48;;;;;;;29.98;60.25;100326.09;5010903;28;20682;-74
2021/07/25 10:07:49;;;;;;;12.32;9.88;;;;;;;30.22;60.87;100329.22;5016075;28;20030;-74
2021/07/25 10:10:16;;;;;;;12.60;9.75;;;;;;;30.20;58.92;100326.19;5012171;28;20031;-74
2021/07/25 10:12:44;;;;;;;13.88;9.27;;;;;;;30.24;59.71;100326.72;5007828;28;20048;-74
2021/07/25 10:15:14;;;;;;;11.90;9.25;;;;;;;30.55;60.20;100316.75;5005064;28;20600;-76
2021/07/25 10:17:41;;;;;;;15.10;9.57;;;;;;;30.64;58.24;100320.06;5008306;28;20056;-77
2021/07/25 10:20:09;;;;;;;12.38;8.55;;;;;;;30.61;57.68;100325.88;5015044;28;20286;-76
2021/07/25 10:22:36;;;;;;;12.85;8.95;;;;;;;30.68;56.94;100325.41;5008687;28;20025;-74
2021/07/25 10:25:07;;;;;;;13.25;8.48;;;;;;;30.75;56.86;100324.91;4998776;28;20033;-76
2021/07/25 10:27:34;;;;;;;12.27;8.43;;;;;;;30.92;56.81;100326.50;5001785;28;20458;-76
2021/07/25 10:30:05;;;;;;;10.23;7.95;;;;;;;31.07;54.47;100323.50;5004382;28;20069;-76
2021/07/25 10:32:37;;;;;;;10.13;7.80;;;;;;;31.10;53.51;100323.25;5025324;28;20493;-73
2021/07/25 10:35:05;;;;;;;11.23;8.30;;;;;;;31.21;52.70;100321.72;5004519;28;20048;-75
2021/07/25 10:37:32;;;;;;;10.35;7.72;;;;;;;30.89;52.82;100319.19;5007433;28;20073;-74
2021/07/25 10:40:00;;;;;;;9.85;7.05;;;;;;;31.00;51.44;100329.56;5007634;28;20045;-74
2021/07/25 10:42:29;;;;;;;10.52;7.60;;;;;;;31.09;52.22;100327.28;5004618;28;20041;-74
2021/07/25 10:44:54;;;;;;;11.90;7.82;;;;;;;31.41;52.19;100322.28;5010293;28;20030;-75
2021/07/25 10:47:23;;;;;;;11.60;7.25;;;;;;;31.48;51.41;100324.56;5002562;28;20108;-76
2021/07/25 10:49:59;;;;;;;11.35;8.40;;;;;;;31.29;49.71;100326.31;5005967;28;20065;-76
2021/07/25 10:52:25;;;;;;;9.90;7.85;;;;;;;31.53;51.15;100323.03;5002893;28;20041;-75
2021/07/25 10:54:50;;;;;;;13.35;7.72;;;;;;;31.48;52.35;100324.56;5007314;28;20033;-74
2021/07/25 10:57:17;;;;;;;12.25;8.00;;;;;;;31.89;53.06;100313.63;5004402;28;20734;-74
2021/07/25 10:59:46;;;;;;;15.13;8.55;;;;;;;31.95;50.47;100309.59;4994221;28;20121;-76
2021/07/25 11:02:14;;;;;;;10.30;7.72;;;;;;;32.19;52.25;100311.03;5004031;28;20034;-75
2021/07/25 11:04:48;;;;;;;16.30;8.35;;;;;;;32.13;50.59;100319.44;5001191;28;20430;-77
2021/07/25 11:07:23;;;;;;;10.23;7.80;;;;;;;32.11;48.88;100324.00;5005137;28;20076;-74
2021/07/25 11:10:24;;;;;;;13.48;7.50;;;;;;;32.11;49.43;100324.00;5004680;28;20030;-74
2021/07/25 11:12:52;;;;;;;10.25;8.00;;;;;;;31.68;48.78;100321.50;5008214;28;20084;-77